createdAt,value
2018-06-20T00:00:21.304Z,16.80
2018-06-20T00:03:32.192Z,16.90
2018-06-20T00:06:42.723Z,16.80
2018-06-20T00:09:53.178Z,16.80
2018-06-20T00:16:39.675Z,16.70
2018-06-20T00:20:10.209Z,16.70
2018-06-20T00:23:20.422Z,16.70
2018-06-20T00:26:31.078Z,16.70
2018-06-20T00:29:41.008Z,16.70
2018-06-20T00:32:51.883Z,16.80
2018-06-20T00:36:01.995Z,16.90
2018-06-20T00:39:12.980Z,16.90
2018-06-20T00:42:22.796Z,16.90
2018-06-20T00:45:33.544Z,17.00
2018-06-20T00:48:43.500Z,17.10
2018-06-20T00:51:54.194Z,17.00
2018-06-20T00:55:04.228Z,16.90
2018-06-20T00:58:15.025Z,16.90
2018-06-20T01:01:26.005Z,16.90
2018-06-20T01:04:36.644Z,16.90
2018-06-20T01:07:47.424Z,17.00
2018-06-20T01:10:58.318Z,17.00
2018-06-20T01:14:08.300Z,17.00
2018-06-20T01:17:18.201Z,17.00
2018-06-20T01:20:29.125Z,17.00
2018-06-20T01:23:40.166Z,17.10
2018-06-20T01:26:50.370Z,17.10
2018-06-20T01:30:01.104Z,17.10
2018-06-20T01:33:12.057Z,17.20
2018-06-20T01:36:21.915Z,17.20
2018-06-20T01:39:31.912Z,17.20
2018-06-20T01:42:42.569Z,17.20
2018-06-20T01:45:53.345Z,17.20
2018-06-20T01:49:03.503Z,17.10
2018-06-20T01:52:13.435Z,17.20
2018-06-20T01:55:23.611Z,17.20
2018-06-20T01:58:34.131Z,17.20
2018-06-20T02:01:44.992Z,17.20
2018-06-20T02:04:55.895Z,17.20
2018-06-20T02:08:06.671Z,17.20
2018-06-20T02:11:17.551Z,17.20
2018-06-20T02:14:28.420Z,17.30
2018-06-20T02:17:38.437Z,17.30
2018-06-20T02:20:48.485Z,17.20
2018-06-20T02:23:59.516Z,17.20
2018-06-20T02:27:09.663Z,17.20
2018-06-20T02:30:20.800Z,17.10
2018-06-20T02:33:31.378Z,17.10
2018-06-20T02:36:42.800Z,17.10
2018-06-20T02:39:52.848Z,17.10
2018-06-20T02:43:03.545Z,17.00
2018-06-20T02:46:14.222Z,17.00
2018-06-20T02:49:24.477Z,16.90
2018-06-20T02:52:35.207Z,16.80
2018-06-20T02:55:46.020Z,16.90
2018-06-20T02:58:56.763Z,16.90
2018-06-20T03:02:07.609Z,16.90
2018-06-20T03:05:18.279Z,16.80
2018-06-20T03:08:28.357Z,16.70
2018-06-20T03:11:39.213Z,16.60
2018-06-20T03:14:50.011Z,16.50
2018-06-20T03:18:06.186Z,16.50
2018-06-20T03:21:17.072Z,16.50
2018-06-20T03:24:28.284Z,16.30
2018-06-20T03:27:38.916Z,16.20
2018-06-20T03:30:48.822Z,16.20
2018-06-20T03:33:59.531Z,16.10
2018-06-20T03:37:10.371Z,16.10
2018-06-20T03:40:20.281Z,16.10
2018-06-20T03:43:30.206Z,16.10
2018-06-20T03:46:41.122Z,16.10
2018-06-20T03:49:52.710Z,16.20
2018-06-20T03:53:02.911Z,16.30
2018-06-20T03:56:12.893Z,16.30
2018-06-20T03:59:23.664Z,16.40
2018-06-20T04:02:33.642Z,16.40
2018-06-20T04:05:44.856Z,16.40
2018-06-20T04:08:55.149Z,16.40
2018-06-20T04:12:05.310Z,16.40
2018-06-20T04:15:15.997Z,16.40
2018-06-20T04:18:38.055Z,16.40
2018-06-20T04:21:48.886Z,16.40
2018-06-20T04:24:59.245Z,16.40
2018-06-20T04:28:09.761Z,16.50
2018-06-20T04:31:19.853Z,16.50
2018-06-20T04:34:30.593Z,16.60
2018-06-20T04:37:40.718Z,16.70
2018-06-20T04:40:50.818Z,16.70
2018-06-20T04:44:01.063Z,16.80
2018-06-20T04:47:11.736Z,16.80
2018-06-20T04:50:21.816Z,16.90
2018-06-20T04:53:32.700Z,16.90
2018-06-20T04:56:43.771Z,16.90
2018-06-20T04:59:54.157Z,17.00
2018-06-20T05:03:04.197Z,17.00
2018-06-20T05:06:14.170Z,17.00
2018-06-20T05:09:24.970Z,17.00
2018-06-20T05:12:35.004Z,17.10
2018-06-20T05:15:46.059Z,17.10
2018-06-20T05:18:56.924Z,17.20
2018-06-20T05:22:07.228Z,17.30
2018-06-20T05:28:29.147Z,17.70
2018-06-20T05:31:40.001Z,17.80
2018-06-20T05:34:50.780Z,17.80
2018-06-20T05:38:00.615Z,17.90
2018-06-20T05:41:11.368Z,18.00
2018-06-20T05:44:22.033Z,18.00
2018-06-20T05:47:31.992Z,18.10
2018-06-20T05:50:42.064Z,18.20
2018-06-20T05:53:52.093Z,18.40
2018-06-20T05:57:02.930Z,18.60
2018-06-20T06:00:13.737Z,18.70
2018-06-20T06:03:24.597Z,18.90
2018-06-20T06:06:36.174Z,19.10
2018-06-20T06:09:46.860Z,19.30
2018-06-20T06:12:57.656Z,19.50
2018-06-20T06:16:08.472Z,19.60
2018-06-20T06:19:19.355Z,19.80
2018-06-20T06:22:29.530Z,19.90
2018-06-20T06:25:40.449Z,20.10
2018-06-20T06:28:50.975Z,20.30
2018-06-20T06:32:01.815Z,20.30
2018-06-20T06:35:12.687Z,20.40
2018-06-20T06:38:23.512Z,20.40
2018-06-20T06:41:34.027Z,20.40
2018-06-20T06:44:50.377Z,20.60
2018-06-20T06:48:00.886Z,20.80
2018-06-20T06:51:11.635Z,20.80
2018-06-20T06:54:22.282Z,21.00
2018-06-20T06:57:32.321Z,21.00
2018-06-20T07:00:42.410Z,21.10
2018-06-20T07:03:53.257Z,21.20
2018-06-20T07:07:03.724Z,21.20
2018-06-20T07:10:13.668Z,21.30
2018-06-20T07:13:24.196Z,21.30
2018-06-20T07:16:35.057Z,21.40
2018-06-20T07:19:45.447Z,21.40
2018-06-20T07:22:56.003Z,21.50
2018-06-20T07:26:06.264Z,21.60
2018-06-20T07:29:16.825Z,21.70
2018-06-20T07:32:27.512Z,21.80
2018-06-20T07:35:38.241Z,21.90
2018-06-20T07:38:48.745Z,21.80
2018-06-20T07:41:58.957Z,22.00
2018-06-20T07:45:08.689Z,22.10
2018-06-20T07:48:19.204Z,22.10
2018-06-20T07:51:29.036Z,22.20
2018-06-20T07:54:38.679Z,22.20
2018-06-20T07:57:49.212Z,22.30
2018-06-20T08:01:04.520Z,22.20
2018-06-20T08:04:20.134Z,22.30
2018-06-20T08:07:35.815Z,22.20
2018-06-20T08:10:51.608Z,22.40
2018-06-20T08:14:06.666Z,22.50
2018-06-20T08:17:25.965Z,22.50
2018-06-20T08:20:36.302Z,22.60
2018-06-20T08:23:46.109Z,22.50
2018-06-20T08:26:56.116Z,22.50
2018-06-20T08:30:07.742Z,22.50
2018-06-20T08:33:17.545Z,22.60
2018-06-20T08:36:27.302Z,22.80
2018-06-20T08:39:37.357Z,22.80
2018-06-20T08:42:47.911Z,22.80
2018-06-20T08:45:57.506Z,23.00
2018-06-20T08:49:07.143Z,23.30
2018-06-20T08:52:17.614Z,23.50
2018-06-20T08:55:27.798Z,23.50
2018-06-20T08:58:38.507Z,23.60
2018-06-20T09:01:48.154Z,23.90
2018-06-20T09:05:03.236Z,23.90
2018-06-20T09:08:18.992Z,24.00
2018-06-20T09:11:35.023Z,24.00
2018-06-20T09:14:50.885Z,24.30
2018-06-20T09:18:06.612Z,24.70
2018-06-20T09:21:16.909Z,24.90
2018-06-20T09:24:26.902Z,24.90
2018-06-20T09:27:37.375Z,25.00
2018-06-20T09:30:47.696Z,24.80
2018-06-20T09:33:58.837Z,24.90
2018-06-20T09:37:09.125Z,24.70
2018-06-20T09:40:19.858Z,24.50
2018-06-20T09:43:29.761Z,24.50
2018-06-20T09:46:39.416Z,24.40
2018-06-20T09:49:49.284Z,24.50
2018-06-20T09:52:59.003Z,24.70
2018-06-20T09:56:08.895Z,24.70
2018-06-20T09:59:24.223Z,24.70
2018-06-20T10:02:39.765Z,25.00
2018-06-20T10:05:55.674Z,25.00
2018-06-20T10:09:11.771Z,25.30
2018-06-20T10:12:26.768Z,25.40
2018-06-20T10:15:37.498Z,25.80
2018-06-20T10:18:47.911Z,25.70
2018-06-20T10:21:57.818Z,25.80
2018-06-20T10:25:07.540Z,25.80
2018-06-20T10:28:18.376Z,25.80
2018-06-20T10:31:28.082Z,25.90
2018-06-20T10:34:38.991Z,26.20
2018-06-20T10:37:49.218Z,26.40
2018-06-20T10:40:59.655Z,26.50
2018-06-20T10:44:13.771Z,26.40
2018-06-20T10:47:28.867Z,26.30
2018-06-20T10:50:39.390Z,26.70
2018-06-20T10:57:04.284Z,27.10
2018-06-20T11:00:19.964Z,27.20
2018-06-20T11:03:35.660Z,27.40
2018-06-20T11:06:52.039Z,27.40
2018-06-20T11:10:07.163Z,27.70
2018-06-20T11:13:17.498Z,27.80
2018-06-20T11:16:27.370Z,27.70
2018-06-20T11:19:37.137Z,27.60
2018-06-20T11:22:47.796Z,27.80
2018-06-20T11:29:07.643Z,27.70
2018-06-20T11:32:18.015Z,28.10
2018-06-20T11:35:27.904Z,28.10
2018-06-20T11:38:37.895Z,28.10
2018-06-20T11:41:47.531Z,27.90
2018-06-20T11:44:57.343Z,27.80
2018-06-20T11:48:07.791Z,27.70
2018-06-20T11:51:18.396Z,27.70
2018-06-20T11:54:28.005Z,28.10
2018-06-20T11:57:37.875Z,28.20
2018-06-20T12:00:52.980Z,27.90
2018-06-20T12:04:08.911Z,28.00
2018-06-20T12:07:24.685Z,28.00
2018-06-20T12:10:40.325Z,27.70
2018-06-20T12:13:55.867Z,27.70
2018-06-20T12:17:05.708Z,28.00
2018-06-20T12:20:21.123Z,28.10
2018-06-20T12:23:36.600Z,28.40
2018-06-20T12:26:52.100Z,28.60
2018-06-20T12:30:08.208Z,28.60
2018-06-20T12:33:23.589Z,28.50
2018-06-20T12:36:39.558Z,28.70
2018-06-20T12:39:52.943Z,28.60
2018-06-20T12:43:08.784Z,28.50
2018-06-20T12:46:23.423Z,28.80
2018-06-20T12:49:37.623Z,28.80
2018-06-20T12:52:47.635Z,29.00
2018-06-20T12:55:57.412Z,28.90
2018-06-20T12:59:07.294Z,28.80
2018-06-20T13:02:17.232Z,28.90
2018-06-20T13:05:26.810Z,28.80
2018-06-20T13:08:37.353Z,29.00
2018-06-20T13:11:47.978Z,29.30
2018-06-20T13:14:57.724Z,29.50
2018-06-20T13:18:07.399Z,29.50
2018-06-20T13:21:17.194Z,29.60
2018-06-20T13:24:26.978Z,29.80
2018-06-20T13:27:53.339Z,29.50
2018-06-20T13:31:10.129Z,29.70
2018-06-20T13:34:25.703Z,29.80
2018-06-20T13:37:41.298Z,29.90
2018-06-20T13:40:57.043Z,30.00
2018-06-20T13:44:09.128Z,30.10
2018-06-20T13:47:31.514Z,30.30
2018-06-20T13:50:41.750Z,30.10
2018-06-20T13:53:51.322Z,30.20
2018-06-20T13:57:00.981Z,30.10
2018-06-20T14:03:20.471Z,30.40
2018-06-20T14:06:30.245Z,29.70
2018-06-20T14:09:39.915Z,29.50
2018-06-20T14:12:49.634Z,29.90
2018-06-20T14:15:59.296Z,29.70
2018-06-20T14:19:09.016Z,29.50
2018-06-20T14:22:18.766Z,29.60
2018-06-20T14:25:30.869Z,29.80
2018-06-20T14:28:40.796Z,29.90
2018-06-20T14:31:56.264Z,30.30
2018-06-20T14:35:11.622Z,30.60
2018-06-20T14:38:27.330Z,30.50
2018-06-20T14:42:43.519Z,30.30
2018-06-20T14:45:59.267Z,30.20
2018-06-20T14:49:09.568Z,30.30
2018-06-20T14:52:20.036Z,30.40
2018-06-20T14:55:30.770Z,30.40
2018-06-20T14:58:40.751Z,30.50
2018-06-20T15:01:50.439Z,30.40
2018-06-20T15:05:00.322Z,30.30
2018-06-20T15:08:10.122Z,30.60
2018-06-20T15:11:20.680Z,30.20
2018-06-20T15:14:30.399Z,30.10
2018-06-20T15:17:40.339Z,30.30
2018-06-20T15:20:50.555Z,30.20
2018-06-20T15:24:00.714Z,30.00
2018-06-20T15:27:15.635Z,30.00
2018-06-20T15:30:31.635Z,29.80
2018-06-20T15:33:48.259Z,30.10
2018-06-20T15:37:04.110Z,30.00
2018-06-20T15:40:14.944Z,29.90
2018-06-20T15:43:25.478Z,29.80
2018-06-20T15:46:35.268Z,29.80
2018-06-20T15:49:45.772Z,29.50
2018-06-20T15:52:55.619Z,29.70
2018-06-20T15:56:07.079Z,29.50
2018-06-20T15:59:17.593Z,29.70
2018-06-20T16:02:31.738Z,29.80
2018-06-20T16:05:42.427Z,30.00
2018-06-20T16:08:58.315Z,30.10
2018-06-20T16:12:08.581Z,30.00
2018-06-20T16:15:18.658Z,30.10
2018-06-20T16:18:29.181Z,30.10
2018-06-20T16:22:48.992Z,30.10
2018-06-20T16:26:04.967Z,30.00
2018-06-20T16:29:20.444Z,29.90
2018-06-20T16:32:31.473Z,29.80
2018-06-20T16:35:42.396Z,29.80
2018-06-20T16:38:52.347Z,29.40
2018-06-20T16:46:03.911Z,29.40
2018-06-20T16:49:14.105Z,29.20
2018-06-20T16:52:26.553Z,29.20
2018-06-20T16:55:36.481Z,29.10
2018-06-20T16:58:47.186Z,29.20
2018-06-20T17:02:03.276Z,29.20
2018-06-20T17:05:14.177Z,29.20
2018-06-20T17:08:24.408Z,29.00
2018-06-20T17:11:34.031Z,28.90
2018-06-20T17:14:49.245Z,29.00
2018-06-20T17:18:05.072Z,28.90
2018-06-20T17:21:21.155Z,28.80
2018-06-20T17:24:36.211Z,28.80
2018-06-20T17:27:46.551Z,28.70
2018-06-20T17:30:56.199Z,28.60
2018-06-20T17:34:06.352Z,28.60
2018-06-20T17:37:17.184Z,28.60
2018-06-20T17:40:27.449Z,28.50
2018-06-20T17:43:37.228Z,28.40
2018-06-20T17:46:47.150Z,28.30
2018-06-20T17:49:57.231Z,28.20
2018-06-20T17:53:10.209Z,28.20
2018-06-20T17:56:20.605Z,28.10
2018-06-20T17:59:34.297Z,28.10
2018-06-20T18:02:45.428Z,28.00
2018-06-20T18:06:01.551Z,28.00
2018-06-20T18:09:18.210Z,27.90
2018-06-20T18:16:34.481Z,27.80
2018-06-20T18:22:54.376Z,27.60
2018-06-20T18:26:26.100Z,27.50
2018-06-20T18:29:36.995Z,27.50
2018-06-20T18:32:46.754Z,27.40
2018-06-20T18:35:56.441Z,27.30
2018-06-20T18:42:32.684Z,27.10
2018-06-20T18:45:43.197Z,27.10
2018-06-20T18:48:53.549Z,27.10
2018-06-20T18:52:04.343Z,27.00
2018-06-20T18:55:14.778Z,26.90
2018-06-20T18:58:30.184Z,26.80
2018-06-20T19:01:45.768Z,26.60
2018-06-20T19:05:01.528Z,26.50
2018-06-20T19:08:17.126Z,26.30
2018-06-20T19:11:27.253Z,26.10
2018-06-20T19:14:36.834Z,25.90
2018-06-20T19:17:47.328Z,25.80
2018-06-20T19:20:57.335Z,25.70
2018-06-20T19:24:09.222Z,25.50
2018-06-20T19:30:29.286Z,25.40
2018-06-20T19:33:44.427Z,25.20
2018-06-20T19:36:54.099Z,24.80
2018-06-20T19:40:04.717Z,24.80
2018-06-20T19:43:14.636Z,24.80
2018-06-20T19:46:25.108Z,24.60
2018-06-20T19:49:34.826Z,24.50
2018-06-20T19:52:45.564Z,24.30
2018-06-20T19:55:56.088Z,24.20
2018-06-20T19:59:06.335Z,24.20
2018-06-20T20:02:16.653Z,24.10
2018-06-20T20:05:26.734Z,23.90
2018-06-20T20:08:37.245Z,24.00
2018-06-20T20:11:47.327Z,23.80
2018-06-20T20:14:57.253Z,23.70
2018-06-20T20:18:07.614Z,23.70
2018-06-20T20:21:18.240Z,23.50
2018-06-20T20:24:27.912Z,23.40
2018-06-20T20:27:37.562Z,23.30
2018-06-20T20:30:47.332Z,23.10
2018-06-20T20:33:57.004Z,23.00
2018-06-20T20:37:07.001Z,22.90
2018-06-20T20:40:17.282Z,22.70
2018-06-20T20:43:27.604Z,22.60
2018-06-20T20:46:37.651Z,22.60
2018-06-20T20:49:48.134Z,22.50
2018-06-20T20:52:57.927Z,22.40
2018-06-20T20:56:08.017Z,22.40
2018-06-20T20:59:17.864Z,22.30
2018-06-20T21:02:28.591Z,22.40
2018-06-20T21:05:39.148Z,22.30
2018-06-20T21:08:48.912Z,22.30
2018-06-20T21:11:58.641Z,22.20
2018-06-20T21:15:08.270Z,22.10
2018-06-20T21:18:18.133Z,21.90
2018-06-20T21:21:28.584Z,21.90
2018-06-20T21:24:39.231Z,21.90
2018-06-20T21:27:58.309Z,21.80
2018-06-20T21:31:08.773Z,21.70
2018-06-20T21:34:18.598Z,21.70
2018-06-20T21:37:28.251Z,21.50
2018-06-20T21:40:38.439Z,21.60
2018-06-20T21:43:49.286Z,21.60
2018-06-20T21:47:00.672Z,21.40
2018-06-20T21:50:10.641Z,21.40
2018-06-20T21:53:21.503Z,21.40
2018-06-20T21:56:31.973Z,21.40
2018-06-20T21:59:42.679Z,21.20
2018-06-20T22:02:52.578Z,21.00
2018-06-20T22:06:02.455Z,20.80
2018-06-20T22:09:12.497Z,20.70
2018-06-20T22:12:23.399Z,20.60
2018-06-20T22:15:34.225Z,20.60
2018-06-20T22:18:44.934Z,20.60
2018-06-20T22:21:55.664Z,20.50
2018-06-20T22:25:06.751Z,20.40
2018-06-20T22:28:17.287Z,20.40
2018-06-20T22:31:28.169Z,20.30
2018-06-20T22:34:38.141Z,20.30
2018-06-20T22:37:48.681Z,20.00
2018-06-20T22:40:59.183Z,19.90
2018-06-20T22:44:09.775Z,19.90
2018-06-20T22:47:20.549Z,19.90
2018-06-20T22:50:31.401Z,19.90
2018-06-20T22:53:42.174Z,19.90
2018-06-20T22:56:52.861Z,19.70
2018-06-20T23:00:03.649Z,19.60
2018-06-20T23:03:14.210Z,19.60
2018-06-20T23:06:24.997Z,19.50
2018-06-20T23:09:35.371Z,19.50
2018-06-20T23:12:46.450Z,19.40
2018-06-20T23:15:56.866Z,19.50
2018-06-20T23:19:07.295Z,19.40
2018-06-20T23:22:17.836Z,19.40
2018-06-20T23:25:28.566Z,19.40
2018-06-20T23:28:39.040Z,19.20
2018-06-20T23:31:49.899Z,19.10
2018-06-20T23:35:00.783Z,19.10
2018-06-20T23:38:10.927Z,19.20
2018-06-20T23:41:22.132Z,19.10
2018-06-20T23:44:32.456Z,19.10
2018-06-20T23:47:42.601Z,18.90
2018-06-20T23:50:53.261Z,18.80
2018-06-20T23:54:04.366Z,18.90
2018-06-20T23:57:15.269Z,18.80
